JZA8095 CYQY-CYUL
Flight info
| Callsign | JZA8095 |
|---|---|
| Flight time | N/A |
| Altitude | 36000 |
| Route | IKURO DCT DULBA DCT KEBIG ROCKT3 |
| Aircraft | CRJ9/M-SDFGIRWY/S |
Departure
| Time | 2026-05-06 01:00 |
|---|---|
| Airport | Sydney / J.A. Douglas McCurdy Airport (CYQY) |
Arrival
| Time | N/A |
|---|---|
| Airport | Montreal / Pierre Elliott Trudeau International Airport (CYUL) |
| Time | Latitude | Longitude | Altitude | Speed | Heading |
|---|---|---|---|---|---|
| 2026-05-06 00:36 | 46.16675 | -60.04675 | 184 ft | 0 kts | 0° |
| 2026-05-06 00:54 | 46.16662 | -60.04675 | 184 ft | 4 kts | 2° |
| 2026-05-06 00:54 | 46.16636 | -60.04679 | 184 ft | 4 kts | 13° |
| 2026-05-06 00:54 | 46.16610 | -60.04691 | 184 ft | 4 kts | 27° |
| 2026-05-06 00:55 | 46.16591 | -60.04709 | 184 ft | 1 kts | 46° |
| 2026-05-06 00:57 | 46.16596 | -60.04702 | 184 ft | 3 kts | 46° |
| 2026-05-06 00:57 | 46.16616 | -60.04673 | 184 ft | 5 kts | 46° |
| 2026-05-06 00:57 | 46.16640 | -60.04637 | 184 ft | 6 kts | 46° |
| 2026-05-06 00:58 | 46.16670 | -60.04593 | 184 ft | 7 kts | 46° |
| 2026-05-06 00:58 | 46.16700 | -60.04538 | 184 ft | 7 kts | 69° |
| 2026-05-06 00:58 | 46.16705 | -60.04465 | 183 ft | 8 kts | 87° |
| 2026-05-06 00:58 | 46.16704 | -60.04383 | 183 ft | 9 kts | 90° |
| 2026-05-06 00:59 | 46.16702 | -60.04294 | 183 ft | 9 kts | 92° |
| 2026-05-06 00:59 | 46.16701 | -60.04212 | 183 ft | 7 kts | 91° |
| 2026-05-06 00:59 | 46.16673 | -60.04160 | 182 ft | 7 kts | 178° |
| 2026-05-06 00:59 | 46.16646 | -60.04179 | 182 ft | 0 kts | 221° |
| 2026-05-06 01:00 | 46.16618 | -60.04216 | 182 ft | 29 kts | 224° |
| 2026-05-06 01:00 | 46.16296 | -60.04693 | 184 ft | 100 kts | 225° |
| 2026-05-06 01:00 | 46.15672 | -60.05616 | 251 ft | 147 kts | 225° |
| 2026-05-06 01:00 | 46.14961 | -60.06718 | 928 ft | 154 kts | 227° |
| 2026-05-06 01:01 | 46.14192 | -60.07919 | 1797 ft | 165 kts | 227° |
| 2026-05-06 01:01 | 46.13428 | -60.09106 | 3032 ft | 159 kts | 228° |
| 2026-05-06 01:01 | 46.12715 | -60.10334 | 4040 ft | 164 kts | 242° |
| 2026-05-06 01:01 | 46.12455 | -60.11989 | 4899 ft | 175 kts | 252° |
| 2026-05-06 01:02 | 46.11751 | -60.13392 | 5785 ft | 179 kts | 223° |
| 2026-05-06 01:02 | 46.11035 | -60.14845 | 6586 ft | 185 kts | 261° |
| 2026-05-06 01:02 | 46.11076 | -60.16736 | 7261 ft | 201 kts | 268° |
| 2026-05-06 01:02 | 46.11080 | -60.18845 | 7810 ft | 219 kts | 266° |
| 2026-05-06 01:03 | 46.11050 | -60.21128 | 8430 ft | 235 kts | 266° |
| 2026-05-06 01:03 | 46.11089 | -60.23557 | 9107 ft | 250 kts | 270° |
| 2026-05-06 01:03 | 46.11248 | -60.26111 | 9879 ft | 259 kts | 273° |
| 2026-05-06 01:03 | 46.11468 | -60.28707 | 10708 ft | 262 kts | 274° |
| 2026-05-06 01:04 | 46.11689 | -60.31333 | 11469 ft | 270 kts | 274° |
| 2026-05-06 01:04 | 46.11923 | -60.34098 | 11909 ft | 286 kts | 274° |
| 2026-05-06 01:04 | 46.12163 | -60.36988 | 12545 ft | 293 kts | 274° |
| 2026-05-06 01:04 | 46.12407 | -60.39918 | 13324 ft | 296 kts | 274° |
| 2026-05-06 01:05 | 46.12648 | -60.42885 | 14069 ft | 299 kts | 273° |
| 2026-05-06 01:05 | 46.12880 | -60.45877 | 14791 ft | 301 kts | 273° |
| 2026-05-06 01:05 | 46.13110 | -60.48887 | 15474 ft | 304 kts | 273° |
| 2026-05-06 01:05 | 46.13340 | -60.51909 | 16134 ft | 307 kts | 273° |
| 2026-05-06 01:06 | 46.13571 | -60.54985 | 16798 ft | 310 kts | 273° |
| 2026-05-06 01:06 | 46.13802 | -60.58101 | 17450 ft | 313 kts | 273° |
| 2026-05-06 01:06 | 46.14036 | -60.61233 | 18087 ft | 316 kts | 273° |
| 2026-05-06 01:06 | 46.14267 | -60.64390 | 18665 ft | 318 kts | 273° |
| 2026-05-06 01:07 | 46.14503 | -60.67583 | 19205 ft | 321 kts | 273° |
| 2026-05-06 01:07 | 46.14740 | -60.70801 | 19732 ft | 324 kts | 273° |
| 2026-05-06 01:07 | 46.14977 | -60.74042 | 20250 ft | 327 kts | 273° |
| 2026-05-06 01:07 | 46.15213 | -60.77279 | 20770 ft | 329 kts | 273° |
| 2026-05-06 01:08 | 46.15452 | -60.80586 | 21271 ft | 332 kts | 273° |
| 2026-05-06 01:08 | 46.15693 | -60.83910 | 21747 ft | 335 kts | 273° |
| 2026-05-06 01:08 | 46.15931 | -60.87263 | 22238 ft | 337 kts | 273° |
| 2026-05-06 01:08 | 46.16173 | -60.90640 | 22724 ft | 340 kts | 273° |
| 2026-05-06 01:09 | 46.16419 | -60.94051 | 23236 ft | 341 kts | 272° |
| 2026-05-06 01:09 | 46.16663 | -60.97470 | 23669 ft | 344 kts | 272° |
| 2026-05-06 01:09 | 46.16906 | -61.00914 | 24034 ft | 346 kts | 272° |
| 2026-05-06 01:09 | 46.17149 | -61.04381 | 24407 ft | 348 kts | 273° |
| 2026-05-06 01:10 | 46.17392 | -61.07825 | 24723 ft | 352 kts | 272° |
| 2026-05-06 01:10 | 46.17638 | -61.11388 | 25055 ft | 354 kts | 272° |
| 2026-05-06 01:10 | 46.17881 | -61.14892 | 25400 ft | 356 kts | 273° |
| 2026-05-06 01:10 | 46.18129 | -61.18465 | 25748 ft | 358 kts | 273° |
| 2026-05-06 01:11 | 46.18374 | -61.22060 | 26080 ft | 360 kts | 273° |
| 2026-05-06 01:11 | 46.18621 | -61.25666 | 26409 ft | 362 kts | 273° |
| 2026-05-06 01:11 | 46.18869 | -61.29290 | 26719 ft | 364 kts | 273° |
| 2026-05-06 01:11 | 46.19117 | -61.32940 | 27021 ft | 366 kts | 273° |
| 2026-05-06 01:12 | 46.19365 | -61.36606 | 27382 ft | 367 kts | 273° |
| 2026-05-06 01:12 | 46.19610 | -61.40277 | 27694 ft | 369 kts | 273° |
| 2026-05-06 01:12 | 46.19856 | -61.43969 | 27982 ft | 371 kts | 273° |
| 2026-05-06 01:12 | 46.20105 | -61.47680 | 28266 ft | 372 kts | 273° |
| 2026-05-06 01:13 | 46.20348 | -61.51367 | 28540 ft | 374 kts | 273° |
| 2026-05-06 01:13 | 46.20597 | -61.55127 | 28810 ft | 376 kts | 273° |
| 2026-05-06 01:13 | 46.20845 | -61.58897 | 29075 ft | 378 kts | 273° |
| 2026-05-06 01:13 | 46.21092 | -61.62683 | 29322 ft | 380 kts | 273° |
| 2026-05-06 01:14 | 46.21583 | -61.70313 | 29803 ft | 383 kts | 273° |
| 2026-05-06 01:14 | 46.21829 | -61.74163 | 30027 ft | 385 kts | 273° |
| 2026-05-06 01:14 | 46.22076 | -61.78020 | 30249 ft | 386 kts | 273° |
| 2026-05-06 01:15 | 46.22320 | -61.81846 | 30466 ft | 387 kts | 273° |
| 2026-05-06 01:15 | 46.22566 | -61.85716 | 30663 ft | 388 kts | 273° |
| 2026-05-06 01:15 | 46.22811 | -61.89610 | 30858 ft | 389 kts | 273° |
| 2026-05-06 01:15 | 46.23053 | -61.93503 | 31050 ft | 390 kts | 273° |
| 2026-05-06 01:16 | 46.23297 | -61.97415 | 31243 ft | 391 kts | 273° |
| 2026-05-06 01:16 | 46.23537 | -62.01330 | 31416 ft | 392 kts | 273° |
| 2026-05-06 01:16 | 46.23779 | -62.05256 | 31593 ft | 393 kts | 273° |
| 2026-05-06 01:16 | 46.24018 | -62.09172 | 31873 ft | 391 kts | 273° |
| 2026-05-06 01:17 | 46.24257 | -62.13087 | 32092 ft | 390 kts | 273° |
| 2026-05-06 01:17 | 46.24493 | -62.16988 | 32289 ft | 390 kts | 272° |
| 2026-05-06 01:17 | 46.24727 | -62.20913 | 32417 ft | 392 kts | 272° |
| 2026-05-06 01:17 | 46.24959 | -62.24776 | 32638 ft | 391 kts | 272° |
| 2026-05-06 01:18 | 46.25192 | -62.28684 | 32830 ft | 390 kts | 272° |
| 2026-05-06 01:18 | 46.25422 | -62.32594 | 33051 ft | 389 kts | 272° |
| 2026-05-06 01:18 | 46.25651 | -62.36498 | 33242 ft | 389 kts | 272° |
| 2026-05-06 01:18 | 46.25880 | -62.40392 | 33446 ft | 388 kts | 272° |
| 2026-05-06 01:19 | 46.26104 | -62.44281 | 33631 ft | 388 kts | 272° |
| 2026-05-06 01:19 | 46.26329 | -62.48157 | 33795 ft | 387 kts | 272° |
| 2026-05-06 01:19 | 46.26549 | -62.52032 | 33964 ft | 387 kts | 272° |